createdAt,value
2023-04-22T00:00:14.771Z,12.19
2023-04-22T00:02:41.731Z,12.08
2023-04-22T00:05:09.198Z,12.03
2023-04-22T00:07:36.152Z,12.02
2023-04-22T00:10:02.984Z,12.14
2023-04-22T00:12:29.822Z,12.15
2023-04-22T00:14:56.768Z,12.15
2023-04-22T00:17:23.678Z,12.12
2023-04-22T00:19:50.482Z,12.08
2023-04-22T00:22:17.295Z,11.98
2023-04-22T00:24:44.089Z,12.02
2023-04-22T00:27:11.066Z,12.05
2023-04-22T00:29:38.336Z,12.01
2023-04-22T00:32:05.443Z,12.00
2023-04-22T00:34:32.250Z,11.92
2023-04-22T00:36:59.020Z,11.88
2023-04-22T00:39:25.766Z,11.91
2023-04-22T00:41:53.729Z,11.89
2023-04-22T00:44:23.068Z,11.87
2023-04-22T00:46:50.025Z,11.77
2023-04-22T00:49:17.014Z,11.75
2023-04-22T00:51:44.197Z,11.75
2023-04-22T00:54:11.129Z,11.75
2023-04-22T00:56:38.482Z,11.74
2023-04-22T00:59:05.300Z,11.69
2023-04-22T01:01:32.374Z,11.66
2023-04-22T01:04:01.225Z,11.64
2023-04-22T01:06:30.292Z,11.66
2023-04-22T01:08:58.925Z,11.66
2023-04-22T01:11:25.695Z,11.56
2023-04-22T01:13:52.530Z,11.61
2023-04-22T01:16:19.507Z,11.59
2023-04-22T01:18:46.919Z,11.50
2023-04-22T01:21:13.786Z,11.37
2023-04-22T01:23:40.746Z,11.45
2023-04-22T01:26:07.612Z,11.48
2023-04-22T01:28:34.491Z,11.47
2023-04-22T01:31:01.392Z,11.49
2023-04-22T01:33:29.843Z,11.49
2023-04-22T01:35:56.720Z,11.52
2023-04-22T01:38:23.557Z,11.43
2023-04-22T01:40:50.713Z,11.52
2023-04-22T01:43:17.506Z,11.49
2023-04-22T01:45:44.586Z,11.52
2023-04-22T01:48:11.542Z,11.47
2023-04-22T01:50:38.439Z,11.56
2023-04-22T01:53:07.538Z,11.48
2023-04-22T01:55:36.366Z,11.39
2023-04-22T01:58:04.500Z,11.37
2023-04-22T02:00:31.787Z,11.42
2023-04-22T02:02:58.720Z,11.33
2023-04-22T02:05:26.508Z,11.35
2023-04-22T02:07:53.981Z,11.06
2023-04-22T02:10:21.516Z,10.93
2023-04-22T02:12:48.351Z,10.81
2023-04-22T02:15:15.447Z,10.69
2023-04-22T02:17:43.643Z,10.79
2023-04-22T02:20:12.990Z,10.91
2023-04-22T02:22:41.699Z,10.88
2023-04-22T02:25:09.557Z,10.60
2023-04-22T02:27:36.595Z,10.63
2023-04-22T02:30:04.176Z,10.50
2023-04-22T02:32:31.802Z,10.45
2023-04-22T02:34:59.809Z,10.40
2023-04-22T02:37:26.644Z,10.55
2023-04-22T02:39:54.160Z,10.62
2023-04-22T02:42:20.950Z,10.64
2023-04-22T02:44:47.762Z,10.84
2023-04-22T02:47:14.606Z,10.81
2023-04-22T02:49:41.611Z,10.83
2023-04-22T02:52:09.570Z,10.92
2023-04-22T02:54:36.478Z,11.05
2023-04-22T02:57:03.402Z,11.08
2023-04-22T02:59:31.357Z,11.06
2023-04-22T03:01:58.728Z,11.06
2023-04-22T03:04:55.276Z,10.75
2023-04-22T03:07:22.214Z,10.88
2023-04-22T03:09:48.981Z,10.85
2023-04-22T03:12:15.784Z,10.76
2023-04-22T03:14:43.077Z,10.42
2023-04-22T03:17:09.936Z,10.37
2023-04-22T03:19:37.220Z,10.48
2023-04-22T03:22:04.781Z,10.41
2023-04-22T03:24:31.629Z,10.37
2023-04-22T03:27:04.183Z,10.37
2023-04-22T03:29:31.036Z,10.31
2023-04-22T03:31:58.018Z,10.00
2023-04-22T03:34:24.929Z,9.98
2023-04-22T03:36:51.696Z,9.93
2023-04-22T03:39:20.151Z,9.94
2023-04-22T03:41:47.253Z,10.01
2023-04-22T03:44:14.049Z,9.79
2023-04-22T03:46:41.060Z,9.88
2023-04-22T03:49:15.870Z,9.83
2023-04-22T03:51:43.972Z,9.81
2023-04-22T03:54:15.309Z,9.75
2023-04-22T03:56:48.127Z,9.89
2023-04-22T03:59:15.561Z,9.73
2023-04-22T04:01:43.093Z,9.74
2023-04-22T04:04:10.863Z,9.74
2023-04-22T04:06:59.710Z,9.72
2023-04-22T04:09:27.612Z,9.69
2023-04-22T04:11:54.436Z,9.60
2023-04-22T04:14:21.821Z,9.65
2023-04-22T04:16:51.572Z,9.56
2023-04-22T04:19:26.876Z,9.68
2023-04-22T04:21:54.461Z,9.98
2023-04-22T04:24:22.686Z,10.00
2023-04-22T04:26:51.508Z,10.13
2023-04-22T04:29:23.979Z,9.81
2023-04-22T04:32:11.900Z,9.71
2023-04-22T04:34:38.858Z,9.59
2023-04-22T04:37:07.442Z,9.64
2023-04-22T04:40:01.948Z,9.55
2023-04-22T04:42:42.638Z,9.79
2023-04-22T04:48:42.514Z,10.05
2023-04-22T04:51:10.275Z,10.04
2023-04-22T04:53:42.935Z,10.10
2023-04-22T04:56:09.826Z,9.95
2023-04-22T04:58:36.921Z,9.91
2023-04-22T05:01:13.870Z,9.80
2023-04-22T05:03:42.968Z,9.99
2023-04-22T05:06:10.778Z,9.98
2023-04-22T05:08:40.042Z,10.13
2023-04-22T05:11:11.111Z,10.12
2023-04-22T05:13:38.330Z,10.27
2023-04-22T05:16:07.512Z,10.38
2023-04-22T05:18:34.426Z,10.61
2023-04-22T05:21:05.772Z,10.70
2023-04-22T05:23:34.007Z,10.70
2023-04-22T05:26:01.811Z,10.55
2023-04-22T05:28:30.189Z,10.50
2023-04-22T05:30:57.569Z,10.50
2023-04-22T05:33:27.284Z,10.68
2023-04-22T05:35:54.330Z,10.72
2023-04-22T05:38:21.089Z,10.76
2023-04-22T05:40:48.544Z,10.83
2023-04-22T05:43:16.396Z,10.73
2023-04-22T05:45:48.551Z,10.88
2023-04-22T05:48:16.512Z,10.86
2023-04-22T05:50:54.495Z,10.99
2023-04-22T05:53:21.441Z,10.98
2023-04-22T05:55:48.286Z,11.06
2023-04-22T05:58:15.056Z,11.11
2023-04-22T06:00:51.824Z,11.11
2023-04-22T06:03:41.769Z,11.08
2023-04-22T06:06:08.939Z,11.07
2023-04-22T06:08:35.803Z,11.23
2023-04-22T06:11:02.573Z,11.07
2023-04-22T06:13:32.788Z,11.14
2023-04-22T06:15:59.804Z,11.13
2023-04-22T06:18:28.197Z,11.22
2023-04-22T06:20:56.022Z,11.21
2023-04-22T06:23:22.807Z,11.19
2023-04-22T06:25:49.647Z,11.11
2023-04-22T06:28:17.127Z,11.24
2023-04-22T06:30:45.273Z,11.39
2023-04-22T06:33:12.422Z,11.53
2023-04-22T06:35:39.354Z,11.60
2023-04-22T06:38:06.474Z,11.63
2023-04-22T06:40:41.133Z,11.74
2023-04-22T06:43:16.674Z,11.77
2023-04-22T06:46:08.604Z,11.92
2023-04-22T06:48:54.317Z,11.96
2023-04-22T06:51:33.247Z,11.99
2023-04-22T06:54:01.282Z,12.02
2023-04-22T06:56:28.101Z,12.09
2023-04-22T06:58:55.451Z,12.21
2023-04-22T07:01:22.428Z,12.30
2023-04-22T07:03:49.410Z,12.40
2023-04-22T07:06:16.233Z,12.47
2023-04-22T07:08:43.483Z,12.50
2023-04-22T07:11:12.539Z,12.54
2023-04-22T07:13:53.054Z,12.62
2023-04-22T07:16:19.909Z,12.60
2023-04-22T07:18:46.707Z,12.67
2023-04-22T07:21:13.806Z,12.74
2023-04-22T07:23:40.609Z,12.77
2023-04-22T07:26:07.389Z,12.82
2023-04-22T07:28:34.194Z,12.79
2023-04-22T07:31:00.959Z,12.95
2023-04-22T07:33:27.755Z,12.96
2023-04-22T07:35:54.589Z,13.02
2023-04-22T07:38:21.428Z,13.10
2023-04-22T07:40:48.263Z,13.14
2023-04-22T07:43:15.034Z,13.22
2023-04-22T07:45:41.912Z,13.23
2023-04-22T07:48:08.779Z,13.30
2023-04-22T07:50:38.147Z,13.35
2023-04-22T07:53:06.244Z,13.41
2023-04-22T07:55:33.229Z,13.47
2023-04-22T07:58:06.760Z,13.51
2023-04-22T08:00:35.246Z,13.66
2023-04-22T08:03:03.234Z,13.73
2023-04-22T08:05:30.239Z,13.73
2023-04-22T08:07:57.097Z,13.72
2023-04-22T08:10:24.050Z,13.81
2023-04-22T08:12:50.872Z,13.87
2023-04-22T08:15:17.784Z,13.97
2023-04-22T08:17:44.895Z,14.04
2023-04-22T08:20:12.062Z,14.11
2023-04-22T08:22:39.090Z,14.20
2023-04-22T08:25:06.994Z,14.26
2023-04-22T08:27:37.184Z,14.31
2023-04-22T08:30:05.568Z,14.28
2023-04-22T08:32:32.502Z,14.32
2023-04-22T08:35:04.419Z,14.35
2023-04-22T08:37:35.057Z,14.41
2023-04-22T08:40:01.992Z,14.46
2023-04-22T08:42:30.125Z,14.61
2023-04-22T08:44:57.240Z,14.74
2023-04-22T08:47:25.411Z,14.72
2023-04-22T08:49:55.188Z,14.67
2023-04-22T08:52:22.310Z,14.68
2023-04-22T08:54:49.131Z,14.76
2023-04-22T08:57:16.684Z,14.88
2023-04-22T08:59:43.491Z,15.02
2023-04-22T09:02:20.032Z,14.96
2023-04-22T09:04:47.981Z,14.95
2023-04-22T09:07:24.203Z,14.91
2023-04-22T09:09:51.351Z,15.08
2023-04-22T09:12:19.349Z,15.29
2023-04-22T09:14:46.496Z,15.27
2023-04-22T09:17:30.846Z,15.30
2023-04-22T09:19:59.653Z,15.41
2023-04-22T09:22:37.244Z,15.54
2023-04-22T09:25:05.106Z,15.57
2023-04-22T09:27:32.079Z,15.67
2023-04-22T09:29:58.871Z,15.74
2023-04-22T09:32:28.626Z,15.83
2023-04-22T09:35:00.716Z,16.00
2023-04-22T09:37:36.066Z,16.01
2023-04-22T09:40:09.893Z,15.95
2023-04-22T09:42:48.683Z,16.14
2023-04-22T09:45:26.202Z,16.24
2023-04-22T09:47:54.885Z,16.23
2023-04-22T09:50:22.011Z,16.28
2023-04-22T09:53:02.348Z,16.40
2023-04-22T09:55:30.740Z,16.25
2023-04-22T09:57:58.247Z,16.36
2023-04-22T10:00:30.110Z,16.48
2023-04-22T10:02:56.956Z,16.60
2023-04-22T10:05:25.386Z,16.66
2023-04-22T10:07:52.392Z,16.46
2023-04-22T10:10:19.200Z,16.45
2023-04-22T10:12:47.526Z,16.57
2023-04-22T10:15:14.302Z,16.80
2023-04-22T10:17:41.593Z,16.97
2023-04-22T10:20:13.920Z,16.93
2023-04-22T10:22:43.122Z,17.11
2023-04-22T10:25:14.619Z,17.08
2023-04-22T10:27:41.508Z,17.07
2023-04-22T10:30:10.911Z,17.25
2023-04-22T10:32:37.801Z,17.48
2023-04-22T10:35:09.881Z,17.60
2023-04-22T10:37:36.751Z,17.55
2023-04-22T10:40:09.512Z,17.56
2023-04-22T10:42:37.314Z,17.65
2023-04-22T10:45:05.030Z,17.67
2023-04-22T10:47:33.730Z,17.67
2023-04-22T10:50:28.733Z,17.80
2023-04-22T10:53:00.298Z,17.92
2023-04-22T10:55:53.294Z,18.05
2023-04-22T10:58:21.869Z,18.19
2023-04-22T11:00:54.492Z,18.22
2023-04-22T11:03:27.201Z,18.29
2023-04-22T11:06:15.213Z,18.47
2023-04-22T11:08:45.819Z,18.71
2023-04-22T11:11:14.376Z,18.72
2023-04-22T11:13:45.753Z,18.68
2023-04-22T11:16:12.541Z,18.65
2023-04-22T11:18:39.409Z,18.75
2023-04-22T11:21:08.612Z,18.88
2023-04-22T11:23:36.558Z,18.89
2023-04-22T11:26:07.309Z,19.04
2023-04-22T11:28:34.100Z,19.05
2023-04-22T11:31:10.184Z,18.99
2023-04-22T11:33:39.404Z,18.94
2023-04-22T11:36:10.928Z,18.99
2023-04-22T11:38:37.870Z,18.98
2023-04-22T11:41:05.342Z,19.18
2023-04-22T11:43:32.255Z,19.31
2023-04-22T11:45:59.228Z,19.30
2023-04-22T11:48:26.146Z,19.47
2023-04-22T11:51:11.852Z,19.23
2023-04-22T11:53:40.293Z,19.25
2023-04-22T11:56:07.249Z,19.37
2023-04-22T11:58:34.067Z,19.53
2023-04-22T12:01:00.934Z,19.54
2023-04-22T12:03:29.414Z,19.47
2023-04-22T12:06:01.941Z,19.67
2023-04-22T12:08:44.580Z,19.82
2023-04-22T12:11:12.281Z,19.96
2023-04-22T12:13:39.117Z,20.05
2023-04-22T12:16:10.266Z,20.00
2023-04-22T12:18:54.225Z,20.20
2023-04-22T12:21:23.976Z,20.26
2023-04-22T12:23:54.145Z,20.41
2023-04-22T12:26:25.326Z,20.48
2023-04-22T12:28:53.941Z,20.31
2023-04-22T12:31:21.556Z,20.30
2023-04-22T12:33:48.606Z,20.57
2023-04-22T12:36:15.917Z,20.65
2023-04-22T12:38:42.707Z,20.73
2023-04-22T12:41:09.610Z,20.71
2023-04-22T12:43:37.135Z,20.71
2023-04-22T12:46:04.962Z,20.71
2023-04-22T12:48:31.892Z,20.84
2023-04-22T12:50:59.246Z,21.04
2023-04-22T12:53:27.642Z,21.25
2023-04-22T12:55:55.032Z,21.29
2023-04-22T12:58:21.857Z,21.26
2023-04-22T13:00:48.686Z,21.05
2023-04-22T13:03:15.603Z,21.04
2023-04-22T13:05:42.749Z,21.19
2023-04-22T13:08:09.644Z,21.45
2023-04-22T13:10:36.522Z,21.55
2023-04-22T13:15:34.877Z,21.86
2023-04-22T13:18:02.078Z,21.86
2023-04-22T13:20:29.576Z,21.95
2023-04-22T13:22:56.529Z,22.08
2023-04-22T13:25:23.324Z,22.16
2023-04-22T13:27:50.184Z,22.25
2023-04-22T13:30:16.985Z,22.19
2023-04-22T13:32:46.307Z,22.13
2023-04-22T13:35:13.188Z,22.37
2023-04-22T13:37:39.998Z,22.48
2023-04-22T13:40:08.655Z,22.64
2023-04-22T14:51:29.806Z,25.11
2023-04-22T14:53:57.597Z,25.36
2023-04-22T14:56:24.794Z,25.43
2023-04-22T14:58:56.228Z,25.67
2023-04-22T15:01:23.203Z,25.61
2023-04-22T15:03:51.744Z,25.85
2023-04-22T15:06:19.084Z,25.91
2023-04-22T15:08:46.239Z,26.06
2023-04-22T15:11:13.198Z,26.37
2023-04-22T15:13:40.038Z,26.78
2023-04-22T15:16:07.015Z,26.99
2023-04-22T15:18:33.858Z,26.74
2023-04-22T15:21:00.864Z,26.77
2023-04-22T15:23:27.684Z,26.96
2023-04-22T15:25:54.662Z,27.09
2023-04-22T15:28:22.201Z,27.24
2023-04-22T15:30:50.408Z,27.70
2023-04-22T15:33:17.216Z,28.07
2023-04-22T15:35:45.737Z,28.17
2023-04-22T15:38:12.676Z,28.19
2023-04-22T15:40:39.605Z,28.68
2023-04-22T15:43:06.423Z,28.91
2023-04-22T15:45:34.406Z,29.06
2023-04-22T15:48:01.606Z,29.11
2023-04-22T15:50:28.723Z,28.85
2023-04-22T15:52:55.541Z,28.84
2023-04-22T15:55:22.664Z,29.30
2023-04-22T15:57:49.547Z,29.38
2023-04-22T16:00:16.586Z,29.21
2023-04-22T16:02:44.508Z,29.51
2023-04-22T16:05:12.170Z,29.74
2023-04-22T16:07:39.351Z,29.85
2023-04-22T16:10:07.073Z,29.67
2023-04-22T16:12:34.554Z,29.14
2023-04-22T16:15:02.223Z,29.09
2023-04-22T16:17:29.169Z,29.56
2023-04-22T16:19:56.164Z,29.70
2023-04-22T16:22:22.974Z,30.23
2023-04-22T16:24:49.779Z,29.90
2023-04-22T16:27:18.558Z,30.36
2023-04-22T16:29:46.100Z,29.93
2023-04-22T16:32:12.988Z,30.75
2023-04-22T16:34:39.918Z,31.04
2023-04-22T16:37:06.778Z,30.95
2023-04-22T16:39:33.921Z,31.17
2023-04-22T16:42:02.493Z,30.90
2023-04-22T16:44:29.342Z,30.92
2023-04-22T16:46:56.138Z,30.65
2023-04-22T16:49:22.936Z,30.70
2023-04-22T16:51:49.767Z,30.28
2023-04-22T16:54:16.631Z,29.70
2023-04-22T16:56:43.506Z,28.71
2023-04-22T16:59:10.343Z,28.00
2023-04-22T17:01:37.365Z,27.44
2023-04-22T17:04:04.364Z,27.04
2023-04-22T17:06:31.430Z,26.93
2023-04-22T17:08:58.384Z,26.63
2023-04-22T17:11:25.472Z,26.16
2023-04-22T17:13:52.279Z,25.79
2023-04-22T17:16:19.153Z,25.51
2023-04-22T17:18:47.155Z,24.91
2023-04-22T17:21:14.225Z,24.21
2023-04-22T17:23:41.052Z,24.01
2023-04-22T17:26:08.297Z,23.59
2023-04-22T17:28:35.056Z,23.44
2023-04-22T17:31:02.684Z,23.03
2023-04-22T17:33:30.332Z,22.57
2023-04-22T17:35:57.163Z,22.21
2023-04-22T17:38:24.030Z,21.96
2023-04-22T17:40:50.858Z,21.79
2023-04-22T17:43:18.677Z,21.49
2023-04-22T17:45:45.559Z,21.32
2023-04-22T17:48:12.387Z,21.12
2023-04-22T17:50:39.202Z,20.92
2023-04-22T17:53:06.103Z,20.67
2023-04-22T17:55:35.421Z,20.49
2023-04-22T17:58:03.226Z,20.35
2023-04-22T18:00:31.245Z,20.08
2023-04-22T18:02:58.362Z,19.93
2023-04-22T18:05:27.252Z,19.71
2023-04-22T18:08:02.753Z,19.52
2023-04-22T18:10:30.632Z,19.33
2023-04-22T18:12:57.484Z,19.10
2023-04-22T18:15:24.583Z,18.97
2023-04-22T18:17:51.670Z,18.82
2023-04-22T18:20:19.948Z,18.76
2023-04-22T18:22:48.857Z,18.65
2023-04-22T18:25:16.206Z,18.61
2023-04-22T18:27:43.171Z,18.51
2023-04-22T18:30:10.272Z,18.41
2023-04-22T18:32:37.757Z,18.26
2023-04-22T18:35:05.081Z,18.12
2023-04-22T18:37:34.895Z,18.15
2023-04-22T18:40:02.772Z,18.07
2023-04-22T18:42:30.082Z,17.98
2023-04-22T18:44:56.945Z,17.93
2023-04-22T18:47:24.750Z,17.89
2023-04-22T18:49:51.628Z,17.82
2023-04-22T18:52:18.616Z,17.73
2023-04-22T18:54:45.542Z,17.72
2023-04-22T18:57:12.541Z,17.68
2023-04-22T18:59:39.865Z,17.63
2023-04-22T19:02:06.739Z,17.55
2023-04-22T19:04:33.748Z,17.50
2023-04-22T19:07:01.111Z,17.41
2023-04-22T19:09:29.333Z,17.36
2023-04-22T19:11:56.175Z,17.28
2023-04-22T19:14:23.178Z,17.27
2023-04-22T19:16:50.126Z,17.26
2023-04-22T19:19:16.887Z,17.17
2023-04-22T19:21:43.908Z,17.22
2023-04-22T19:24:10.951Z,17.20
2023-04-22T19:26:37.952Z,17.27
2023-04-22T19:29:04.781Z,17.21
2023-04-22T19:31:31.702Z,17.16
2023-04-22T19:33:58.640Z,17.15
2023-04-22T19:36:25.835Z,17.09
2023-04-22T19:38:52.618Z,17.03
2023-04-22T19:41:19.439Z,16.95
2023-04-22T19:43:46.238Z,16.98
2023-04-22T19:46:13.050Z,16.91
2023-04-22T19:48:40.207Z,16.92
2023-04-22T19:51:07.161Z,16.91
2023-04-22T19:53:34.330Z,16.83
2023-04-22T19:56:02.507Z,16.84
2023-04-22T19:58:29.551Z,16.60
2023-04-22T20:00:56.648Z,16.55
2023-04-22T20:03:24.003Z,16.57
2023-04-22T20:05:51.045Z,16.58
2023-04-22T20:08:19.769Z,16.61
2023-04-22T20:10:49.723Z,16.59
2023-04-22T20:13:17.597Z,16.39
2023-04-22T20:15:44.715Z,16.26
2023-04-22T20:18:12.224Z,16.23
2023-04-22T20:20:40.961Z,16.22
2023-04-22T20:23:10.789Z,16.23
2023-04-22T20:25:47.268Z,16.12
2023-04-22T20:28:14.404Z,16.18
2023-04-22T20:30:41.457Z,16.28
2023-04-22T20:33:10.895Z,16.22
2023-04-22T20:35:38.956Z,16.18
2023-04-22T20:38:06.729Z,16.07
2023-04-22T20:40:34.802Z,15.98
2023-04-22T20:43:02.312Z,15.98
2023-04-22T20:45:29.186Z,16.01
2023-04-22T20:47:58.465Z,16.08
2023-04-22T20:50:25.817Z,16.06
2023-04-22T20:52:53.400Z,15.99
2023-04-22T20:55:20.253Z,15.94
2023-04-22T20:57:47.177Z,15.83
2023-04-22T21:00:14.724Z,15.82
2023-04-22T21:02:42.328Z,15.62
2023-04-22T21:05:11.380Z,15.57
2023-04-22T21:07:39.818Z,15.43
2023-04-22T21:10:07.623Z,15.52
2023-04-22T21:12:34.709Z,15.40
2023-04-22T21:15:01.813Z,15.29
2023-04-22T21:17:32.227Z,15.28
2023-04-22T21:19:59.284Z,15.21
2023-04-22T21:22:26.945Z,15.32
2023-04-22T21:24:54.042Z,15.25
2023-04-22T21:27:22.365Z,15.22
2023-04-22T21:29:50.187Z,15.19
2023-04-22T21:32:17.826Z,15.31
2023-04-22T21:34:45.252Z,15.31
2023-04-22T21:37:12.809Z,15.24
2023-04-22T21:39:40.181Z,15.27
2023-04-22T21:42:08.902Z,15.17
2023-04-22T21:44:37.123Z,15.14
2023-04-22T21:47:04.741Z,15.16
2023-04-22T21:49:31.820Z,15.10
2023-04-22T21:51:59.117Z,15.22
2023-04-22T21:54:25.926Z,15.22
2023-04-22T21:56:52.772Z,15.07
2023-04-22T21:59:19.675Z,15.21
2023-04-22T22:01:46.577Z,15.17
2023-04-22T22:04:16.031Z,15.20
2023-04-22T22:06:44.794Z,15.11
2023-04-22T22:09:12.321Z,15.22
2023-04-22T22:11:39.098Z,15.18
2023-04-22T22:14:05.923Z,15.18
2023-04-22T22:16:33.632Z,15.23
2023-04-22T22:19:04.679Z,15.32
2023-04-22T22:21:33.302Z,15.17
2023-04-22T22:24:00.177Z,15.10
2023-04-22T22:26:28.071Z,14.95
2023-04-22T22:28:55.134Z,14.98
2023-04-22T22:31:21.937Z,15.02
2023-04-22T22:33:48.836Z,15.17
2023-04-22T22:36:16.288Z,15.12
2023-04-22T22:38:43.158Z,15.17
2023-04-22T22:41:09.956Z,15.42
2023-04-22T22:43:37.058Z,15.55
2023-04-22T22:46:03.895Z,15.57
2023-04-22T22:48:30.817Z,15.62
2023-04-22T22:50:57.629Z,15.67
2023-04-22T22:53:24.458Z,15.64
2023-04-22T22:55:51.319Z,15.62
2023-04-22T22:58:18.125Z,15.65
2023-04-22T23:00:44.892Z,15.63
2023-04-22T23:03:11.869Z,15.66
2023-04-22T23:05:38.746Z,15.67
2023-04-22T23:08:05.966Z,15.62
2023-04-22T23:10:32.847Z,15.61
2023-04-22T23:12:59.607Z,15.62
2023-04-22T23:15:26.406Z,15.53
2023-04-22T23:17:53.293Z,15.52
2023-04-22T23:20:20.696Z,15.52
2023-04-22T23:22:49.837Z,15.50
2023-04-22T23:25:17.016Z,15.39
2023-04-22T23:27:44.357Z,15.38
2023-04-22T23:30:11.794Z,15.31
2023-04-22T23:32:40.085Z,15.32
2023-04-22T23:35:08.623Z,15.22
2023-04-22T23:37:37.833Z,15.24
2023-04-22T23:40:05.123Z,15.18
2023-04-22T23:42:31.885Z,15.18
2023-04-22T23:44:58.645Z,15.10
2023-04-22T23:47:25.932Z,15.02
2023-04-22T23:49:55.251Z,15.04
2023-04-22T23:52:22.066Z,15.03
2023-04-22T23:54:50.215Z,15.00
2023-04-22T23:57:17.225Z,14.99
2023-04-22T23:59:44.784Z,14.97
